Aviation Digital Data Service (ADDS)

Output produced by METARs form (1830 UTC 19 April 2019)
found at http://www.aviationweather.gov/metar/data/
 
METAR text: KABQ 191752Z 00000KT 10SM CLR 18/M01 A3026 RMK AO2 SLP186 T01781006 10178 20083 58012
Conditions at: KABQ (ALBUQUERQUE , NM, US) observed 1752 UTC 19 April 2019
Temperature: 17.8°C (64°F)
Dewpoint: -0.6°C (31°F) [RH = 29%]
Pressure (altimeter): 30.26 inches Hg (1024.8 mb)
[Sea-level pressure: 1018.6 mb]
Winds: calm
Visibility: 10 or more miles (16+ km)
Ceiling: at least 12,000 feet AGL
Clouds: sky clear below 12,000 feet AGL
Weather: no significant weather observed at this time

METAR text: KABQ 191652Z 00000KT 10SM CLR 16/01 A3029 RMK AO2 SLP198 T01610011
Conditions at: KABQ (ALBUQUERQUE , NM, US) observed 1652 UTC 19 April 2019
Temperature: 16.1°C (61°F)
Dewpoint: 1.1°C (34°F) [RH = 36%]
Pressure (altimeter): 30.29 inches Hg (1025.8 mb)
[Sea-level pressure: 1019.8 mb]
Winds: calm
Visibility: 10 or more miles (16+ km)
Ceiling: at least 12,000 feet AGL
Clouds: sky clear below 12,000 feet AGL
Weather: no significant weather observed at this time

METAR text: KABQ 191552Z 01004KT 10SM CLR 14/01 A3030 RMK AO2 SLP208 T01390011
Conditions at: KABQ (ALBUQUERQUE , NM, US) observed 1552 UTC 19 April 2019
Temperature: 13.9°C (57°F)
Dewpoint: 1.1°C (34°F) [RH = 42%]
Pressure (altimeter): 30.30 inches Hg (1026.2 mb)
[Sea-level pressure: 1020.8 mb]
Winds: from the N (10 degrees) at 5 MPH (4 knots; 2.1 m/s)
Visibility: 10 or more miles (16+ km)
Ceiling: at least 12,000 feet AGL
Clouds: sky clear below 12,000 feet AGL
Weather: no significant weather observed at this time

METAR text: KABQ 191452Z 00000KT 10SM CLR 11/02 A3030 RMK AO2 SLP210 T01060017 51016
Conditions at: KABQ (ALBUQUERQUE , NM, US) observed 1452 UTC 19 April 2019
Temperature: 10.6°C (51°F)
Dewpoint: 1.7°C (35°F) [RH = 54%]
Pressure (altimeter): 30.30 inches Hg (1026.2 mb)
[Sea-level pressure: 1021.0 mb]
Winds: calm
Visibility: 10 or more miles (16+ km)
Ceiling: at least 12,000 feet AGL
Clouds: sky clear below 12,000 feet AGL
Weather: no significant weather observed at this time

METAR text: KABQ 191352Z 06003KT 10SM CLR 10/02 A3029 RMK AO2 SLP208 T01000017
Conditions at: KABQ (ALBUQUERQUE , NM, US) observed 1352 UTC 19 April 2019
Temperature: 10.0°C (50°F)
Dewpoint: 1.7°C (35°F) [RH = 56%]
Pressure (altimeter): 30.29 inches Hg (1025.8 mb)
[Sea-level pressure: 1020.8 mb]
Winds: from the ENE (60 degrees) at 3 MPH (3 knots; 1.5 m/s)
Visibility: 10 or more miles (16+ km)
Ceiling: at least 12,000 feet AGL
Clouds: sky clear below 12,000 feet AGL
Weather: no significant weather observed at this time

METAR text: KABQ 191340Z 02005KT 10SM FEW001 09/02 A3029 RMK AO2 FU FEW001 T00940022
Conditions at: KABQ (ALBUQUERQUE , NM, US) observed 1340 UTC 19 April 2019
Temperature: 9.4°C (49°F)
Dewpoint: 2.2°C (36°F) [RH = 61%]
Pressure (altimeter): 30.29 inches Hg (1025.8 mb)
Winds: from the NNE (20 degrees) at 6 MPH (5 knots; 2.6 m/s)
Visibility: 10 or more miles (16+ km)
Ceiling: at least 12,000 feet AGL
Clouds: few clouds at 100 feet AGL
Weather: no significant weather observed at this time

METAR text: KABQ 191252Z 35007KT 10SM CLR 08/02 A3027 RMK AO2 SLP199 T00830017
Conditions at: KABQ (ALBUQUERQUE , NM, US) observed 1252 UTC 19 April 2019
Temperature: 8.3°C (47°F)
Dewpoint: 1.7°C (35°F) [RH = 63%]
Pressure (altimeter): 30.27 inches Hg (1025.1 mb)
[Sea-level pressure: 1019.9 mb]
Winds: from the N (350 degrees) at 8 MPH (7 knots; 3.6 m/s)
Visibility: 10 or more miles (16+ km)
Ceiling: at least 12,000 feet AGL
Clouds: sky clear below 12,000 feet AGL
Weather: no significant weather observed at this time

METAR text: KABQ 191152Z 36005KT 10SM CLR 09/01 A3024 RMK AO2 SLP191 T00890011 10172 20089 51007
Conditions at: KABQ (ALBUQUERQUE , NM, US) observed 1152 UTC 19 April 2019
Temperature: 8.9°C (48°F)
Dewpoint: 1.1°C (34°F) [RH = 58%]
Pressure (altimeter): 30.24 inches Hg (1024.1 mb)
[Sea-level pressure: 1019.1 mb]
Winds: from the N (360 degrees) at 6 MPH (5 knots; 2.6 m/s)
Visibility: 10 or more miles (16+ km)
Ceiling: at least 12,000 feet AGL
Clouds: sky clear below 12,000 feet AGL
Weather: no significant weather observed at this time

METAR text: KABQ 191052Z 34006KT 10SM FEW150 11/01 A3024 RMK AO2 SLP187 T01060006
Conditions at: KABQ (ALBUQUERQUE , NM, US) observed 1052 UTC 19 April 2019
Temperature: 10.6°C (51°F)
Dewpoint: 0.6°C (33°F) [RH = 50%]
Pressure (altimeter): 30.24 inches Hg (1024.1 mb)
[Sea-level pressure: 1018.7 mb]
Winds: from the NNW (340 degrees) at 7 MPH (6 knots; 3.1 m/s)
Visibility: 10 or more miles (16+ km)
Ceiling: at least 12,000 feet AGL
Clouds: few clouds at 15000 feet AGL
Weather: no significant weather observed at this time

METAR text: KABQ 190952Z 08014KT 10SM CLR 11/01 A3023 RMK AO2 SLP185 T01060006
Conditions at: KABQ (ALBUQUERQUE , NM, US) observed 0952 UTC 19 April 2019
Temperature: 10.6°C (51°F)
Dewpoint: 0.6°C (33°F) [RH = 50%]
Pressure (altimeter): 30.23 inches Hg (1023.8 mb)
[Sea-level pressure: 1018.5 mb]
Winds: from the E (80 degrees) at 16 MPH (14 knots; 7.2 m/s)
Visibility: 10 or more miles (16+ km)
Ceiling: at least 12,000 feet AGL
Clouds: sky clear below 12,000 feet AGL
Weather: no significant weather observed at this time

METAR text: KABQ 190852Z 09015KT 10SM CLR 11/01 A3022 RMK AO2 SLP182 T01110011 50001
Conditions at: KABQ (ALBUQUERQUE , NM, US) observed 0852 UTC 19 April 2019
Temperature: 11.1°C (52°F)
Dewpoint: 1.1°C (34°F) [RH = 50%]
Pressure (altimeter): 30.22 inches Hg (1023.5 mb)
[Sea-level pressure: 1018.2 mb]
Winds: from the E (90 degrees) at 17 MPH (15 knots; 7.7 m/s)
Visibility: 10 or more miles (16+ km)
Ceiling: at least 12,000 feet AGL
Clouds: sky clear below 12,000 feet AGL
Weather: no significant weather observed at this time

METAR text: KABQ 190752Z 08014G18KT 10SM CLR 12/01 A3022 RMK AO2 SLP183 T01220006
Conditions at: KABQ (ALBUQUERQUE , NM, US) observed 0752 UTC 19 April 2019
Temperature: 12.2°C (54°F)
Dewpoint: 0.6°C (33°F) [RH = 45%]
Pressure (altimeter): 30.22 inches Hg (1023.5 mb)
[Sea-level pressure: 1018.3 mb]
Winds: from the E (80 degrees) at 16 MPH (14 knots; 7.2 m/s)
gusting to 21 MPH (18 knots; 9.3 m/s)
Visibility: 10 or more miles (16+ km)
Ceiling: at least 12,000 feet AGL
Clouds: sky clear below 12,000 feet AGL
Weather: no significant weather observed at this time

METAR text: KABQ 190652Z 34008KT 10SM CLR 16/M04 A3022 RMK AO2 SLP178 T01611044 402170056
Conditions at: KABQ (ALBUQUERQUE , NM, US) observed 0652 UTC 19 April 2019
Temperature: 16.1°C (61°F)
Dewpoint: -4.4°C (24°F) [RH = 24%]
Pressure (altimeter): 30.22 inches Hg (1023.5 mb)
[Sea-level pressure: 1017.8 mb]
Winds: from the NNW (340 degrees) at 9 MPH (8 knots; 4.1 m/s)
Visibility: 10 or more miles (16+ km)
Ceiling: at least 12,000 feet AGL
Clouds: sky clear below 12,000 feet AGL
Weather: no significant weather observed at this time

METAR text: KABQ 190552Z 35009G22KT 10SM CLR 17/M05 A3022 RMK AO2 SLP177 T01721050 10217 20150 51021
Conditions at: KABQ (ALBUQUERQUE , NM, US) observed 0552 UTC 19 April 2019
Temperature: 17.2°C (63°F)
Dewpoint: -5.0°C (23°F) [RH = 21%]
Pressure (altimeter): 30.22 inches Hg (1023.5 mb)
[Sea-level pressure: 1017.7 mb]
Winds: from the N (350 degrees) at 10 MPH (9 knots; 4.6 m/s)
gusting to 25 MPH (22 knots; 11.3 m/s)
Visibility: 10 or more miles (16+ km)
Ceiling: at least 12,000 feet AGL
Clouds: sky clear below 12,000 feet AGL
Weather: no significant weather observed at this time

METAR text: KABQ 190452Z 35007KT 10SM CLR 17/M04 A3020 RMK AO2 PK WND 31029/0416 SLP175 T01721044
Conditions at: KABQ (ALBUQUERQUE , NM, US) observed 0452 UTC 19 April 2019
Temperature: 17.2°C (63°F)
Dewpoint: -4.4°C (24°F) [RH = 22%]
Pressure (altimeter): 30.20 inches Hg (1022.8 mb)
[Sea-level pressure: 1017.5 mb]
Winds: from the N (350 degrees) at 8 MPH (7 knots; 3.6 m/s)
Visibility: 10 or more miles (16+ km)
Ceiling: at least 12,000 feet AGL
Clouds: sky clear below 12,000 feet AGL
Weather: no significant weather observed at this time

METAR text: KABQ 190352Z VRB03KT 10SM CLR 17/M03 A3019 RMK AO2 SLP174 T01721028
Conditions at: KABQ (ALBUQUERQUE , NM, US) observed 0352 UTC 19 April 2019
Temperature: 17.2°C (63°F)
Dewpoint: -2.8°C (27°F) [RH = 25%]
Pressure (altimeter): 30.19 inches Hg (1022.4 mb)
[Sea-level pressure: 1017.4 mb]
Winds: variable direction winds at 3 MPH (3 knots; 1.5 m/s)
Visibility: 10 or more miles (16+ km)
Ceiling: at least 12,000 feet AGL
Clouds: sky clear below 12,000 feet AGL
Weather: no significant weather observed at this time

METAR text: KABQ 190252Z 31009G17KT 10SM CLR 19/M05 A3015 RMK AO2 SLP160 T01891050 53007
Conditions at: KABQ (ALBUQUERQUE , NM, US) observed 0252 UTC 19 April 2019
Temperature: 18.9°C (66°F)
Dewpoint: -5.0°C (23°F) [RH = 19%]
Pressure (altimeter): 30.15 inches Hg (1021.1 mb)
[Sea-level pressure: 1016.0 mb]
Winds: from the NW (310 degrees) at 10 MPH (9 knots; 4.6 m/s)
gusting to 20 MPH (17 knots; 8.7 m/s)
Visibility: 10 or more miles (16+ km)
Ceiling: at least 12,000 feet AGL
Clouds: sky clear below 12,000 feet AGL
Weather: no significant weather observed at this time

METAR text: KABQ 190152Z 30012KT 10SM CLR 20/M06 A3013 RMK AO2 WSHFT 0047 SLP153 T02001056
Conditions at: KABQ (ALBUQUERQUE , NM, US) observed 0152 UTC 19 April 2019
Temperature: 20.0°C (68°F)
Dewpoint: -5.6°C (22°F) [RH = 17%]
Pressure (altimeter): 30.13 inches Hg (1020.4 mb)
[Sea-level pressure: 1015.3 mb]
Winds: from the WNW (300 degrees) at 14 MPH (12 knots; 6.2 m/s)
Visibility: 10 or more miles (16+ km)
Ceiling: at least 12,000 feet AGL
Clouds: sky clear below 12,000 feet AGL
Weather: no significant weather observed at this time

METAR text: KABQ 190107Z 29019G24KT 10SM CLR 22/M07 A3012 RMK AO2 WSHFT 0047 T02171067
Conditions at: KABQ (ALBUQUERQUE , NM, US) observed 0107 UTC 19 April 2019
Temperature: 21.7°C (71°F)
Dewpoint: -6.7°C (20°F) [RH = 14%]
Pressure (altimeter): 30.12 inches Hg (1020.1 mb)
Winds: from the WNW (290 degrees) at 22 MPH (19 knots; 9.8 m/s)
gusting to 28 MPH (24 knots; 12.3 m/s)
Visibility: 10 or more miles (16+ km)
Ceiling: at least 12,000 feet AGL
Clouds: sky clear below 12,000 feet AGL
Weather: no significant weather observed at this time

METAR text: KABQ 190052Z 29012G17KT 10SM CLR 21/M02 A3012 RMK AO2 SLP152 T02111022
Conditions at: KABQ (ALBUQUERQUE , NM, US) observed 0052 UTC 19 April 2019
Temperature: 21.1°C (70°F)
Dewpoint: -2.2°C (28°F) [RH = 21%]
Pressure (altimeter): 30.12 inches Hg (1020.1 mb)
[Sea-level pressure: 1015.2 mb]
Winds: from the WNW (290 degrees) at 14 MPH (12 knots; 6.2 m/s)
gusting to 20 MPH (17 knots; 8.7 m/s)
Visibility: 10 or more miles (16+ km)
Ceiling: at least 12,000 feet AGL
Clouds: sky clear below 12,000 feet AGL
Weather: no significant weather observed at this time

METAR text: KABQ 182352Z 22009KT 10SM CLR 21/01 A3012 RMK AO2 SLP152 T02110006 10217 20144 56020
Conditions at: KABQ (ALBUQUERQUE , NM, US) observed 2352 UTC 18 April 2019
Temperature: 21.1°C (70°F)
Dewpoint: 0.6°C (33°F) [RH = 26%]
Pressure (altimeter): 30.12 inches Hg (1020.1 mb)
[Sea-level pressure: 1015.2 mb]
Winds: from the SW (220 degrees) at 10 MPH (9 knots; 4.6 m/s)
Visibility: 10 or more miles (16+ km)
Ceiling: at least 12,000 feet AGL
Clouds: sky clear below 12,000 feet AGL
Weather: no significant weather observed at this time

METAR text: KABQ 182252Z 22008KT 190V260 10SM FEW080 21/00 A3014 RMK AO2 SLP160 T02060000
Conditions at: KABQ (ALBUQUERQUE , NM, US) observed 2252 UTC 18 April 2019
Temperature: 20.6°C (69°F)
Dewpoint: 0.0°C (32°F) [RH = 25%]
Pressure (altimeter): 30.14 inches Hg (1020.7 mb)
[Sea-level pressure: 1016.0 mb]
Winds: from the SW (220 degrees) at 9 MPH (8 knots; 4.1 m/s)
Visibility: 10 or more miles (16+ km)
Ceiling: at least 12,000 feet AGL
Clouds: few clouds at 8000 feet AGL
Weather: no significant weather observed at this time

METAR text: KABQ 182152Z 26011G14KT 10SM FEW080 19/M01 A3016 RMK AO2 SLP173 T01891006
Conditions at: KABQ (ALBUQUERQUE , NM, US) observed 2152 UTC 18 April 2019
Temperature: 18.9°C (66°F)
Dewpoint: -0.6°C (31°F) [RH = 27%]
Pressure (altimeter): 30.16 inches Hg (1021.4 mb)
[Sea-level pressure: 1017.3 mb]
Winds: from the W (260 degrees) at 13 MPH (11 knots; 5.7 m/s)
gusting to 16 MPH (14 knots; 7.2 m/s)
Visibility: 10 or more miles (16+ km)
Ceiling: at least 12,000 feet AGL
Clouds: few clouds at 8000 feet AGL
Weather: no significant weather observed at this time

METAR text: KABQ 182052Z 24010G15KT 10SM FEW070 19/02 A3019 RMK AO2 SLP179 T01890017 57017
Conditions at: KABQ (ALBUQUERQUE , NM, US) observed 2052 UTC 18 April 2019
Temperature: 18.9°C (66°F)
Dewpoint: 1.7°C (35°F) [RH = 32%]
Pressure (altimeter): 30.19 inches Hg (1022.4 mb)
[Sea-level pressure: 1017.9 mb]
Winds: from the WSW (240 degrees) at 12 MPH (10 knots; 5.1 m/s)
gusting to 17 MPH (15 knots; 7.7 m/s)
Visibility: 10 or more miles (16+ km)
Ceiling: at least 12,000 feet AGL
Clouds: few clouds at 7000 feet AGL
Weather: no significant weather observed at this time

METAR text: KABQ 181952Z 26009KT 230V290 10SM FEW060 17/01 A3022 RMK AO2 SLP191 T01720011
Conditions at: KABQ (ALBUQUERQUE , NM, US) observed 1952 UTC 18 April 2019
Temperature: 17.2°C (63°F)
Dewpoint: 1.1°C (34°F) [RH = 34%]
Pressure (altimeter): 30.22 inches Hg (1023.5 mb)
[Sea-level pressure: 1019.1 mb]
Winds: from the W (260 degrees) at 10 MPH (9 knots; 4.6 m/s)
Visibility: 10 or more miles (16+ km)
Ceiling: at least 12,000 feet AGL
Clouds: few clouds at 6000 feet AGL
Weather: no significant weather observed at this time

METAR text: KABQ 181852Z 00000KT 10SM FEW040 16/03 A3023 RMK AO2 SLP198 MTN TOPS OBSC NE AND SE T01610033
Conditions at: KABQ (ALBUQUERQUE , NM, US) observed 1852 UTC 18 April 2019
Temperature: 16.1°C (61°F)
Dewpoint: 3.3°C (38°F) [RH = 42%]
Pressure (altimeter): 30.23 inches Hg (1023.8 mb)
[Sea-level pressure: 1019.8 mb]
Winds: calm
Visibility: 10 or more miles (16+ km)
Ceiling: at least 12,000 feet AGL
Clouds: few clouds at 4000 feet AGL
Weather: no significant weather observed at this time

METAR text: KABQ 181752Z VRB04KT 10SM FEW040 14/04 A3025 RMK AO2 SLP208 MTN TOPS OBSC NE AND SE T01440044 10144 20056 51006
Conditions at: KABQ (ALBUQUERQUE , NM, US) observed 1752 UTC 18 April 2019
Temperature: 14.4°C (58°F)
Dewpoint: 4.4°C (40°F) [RH = 51%]
Pressure (altimeter): 30.25 inches Hg (1024.5 mb)
[Sea-level pressure: 1020.8 mb]
Winds: variable direction winds at 5 MPH (4 knots; 2.1 m/s)
Visibility: 10 or more miles (16+ km)
Ceiling: at least 12,000 feet AGL
Clouds: few clouds at 4000 feet AGL
Weather: no significant weather observed at this time

METAR text: KABQ 181652Z 32007KT 10SM FEW050 13/04 A3025 RMK AO2 SLP209 T01280044
Conditions at: KABQ (ALBUQUERQUE , NM, US) observed 1652 UTC 18 April 2019
Temperature: 12.8°C (55°F)
Dewpoint: 4.4°C (40°F) [RH = 57%]
Pressure (altimeter): 30.25 inches Hg (1024.5 mb)
[Sea-level pressure: 1020.9 mb]
Winds: from the NW (320 degrees) at 8 MPH (7 knots; 3.6 m/s)
Visibility: 10 or more miles (16+ km)
Ceiling: at least 12,000 feet AGL
Clouds: few clouds at 5000 feet AGL
Weather: no significant weather observed at this time

METAR text: KABQ 181552Z 01008KT 10SM FEW050 11/04 A3024 RMK AO2 SLP208 T01060044
Conditions at: KABQ (ALBUQUERQUE , NM, US) observed 1552 UTC 18 April 2019
Temperature: 10.6°C (51°F)
Dewpoint: 4.4°C (40°F) [RH = 65%]
Pressure (altimeter): 30.24 inches Hg (1024.1 mb)
[Sea-level pressure: 1020.8 mb]
Winds: from the N (10 degrees) at 9 MPH (8 knots; 4.1 m/s)
Visibility: 10 or more miles (16+ km)
Ceiling: at least 12,000 feet AGL
Clouds: few clouds at 5000 feet AGL
Weather: no significant weather observed at this time

METAR text: KABQ 181452Z 36008KT 10SM SCT004 08/07 A3023 RMK AO2 SLP209 T00830067 53028
Conditions at: KABQ (ALBUQUERQUE , NM, US) observed 1452 UTC 18 April 2019
Temperature: 8.3°C (47°F)
Dewpoint: 6.7°C (44°F) [RH = 90%]
Pressure (altimeter): 30.23 inches Hg (1023.8 mb)
[Sea-level pressure: 1020.9 mb]
Winds: from the N (360 degrees) at 9 MPH (8 knots; 4.1 m/s)
Visibility: 10 or more miles (16+ km)
Ceiling: at least 12,000 feet AGL
Clouds: scattered clouds at 400 feet AGL
Weather: no significant weather observed at this time

METAR text: KABQ 181419Z 33009KT 10SM BKN004 07/06 A3021 RMK AO2 T00720056
Conditions at: KABQ (ALBUQUERQUE , NM, US) observed 1419 UTC 18 April 2019
Temperature: 7.2°C (45°F)
Dewpoint: 5.6°C (42°F) [RH = 90%]
Pressure (altimeter): 30.21 inches Hg (1023.1 mb)
Winds: from the NNW (330 degrees) at 10 MPH (9 knots; 4.6 m/s)
Visibility: 10 or more miles (16+ km)
Ceiling: 400 feet AGL
Clouds: broken clouds at 400 feet AGL
Weather: no significant weather observed at this time

METAR text: KABQ 181352Z 02005KT 10SM FEW000 FEW002 07/06 A3019 RMK AO2 SLP197 PRFG FEW000 T00720056
Conditions at: KABQ (ALBUQUERQUE , NM, US) observed 1352 UTC 18 April 2019
Temperature: 7.2°C (45°F)
Dewpoint: 5.6°C (42°F) [RH = 90%]
Pressure (altimeter): 30.19 inches Hg (1022.4 mb)
[Sea-level pressure: 1019.7 mb]
Winds: from the NNE (20 degrees) at 6 MPH (5 knots; 2.6 m/s)
Visibility: 10 or more miles (16+ km)
Ceiling: at least 12,000 feet AGL
Clouds: few clouds at 0 feet AGL
few clouds at 200 feet AGL
Weather: no significant weather observed at this time

METAR text: KABQ 181252Z 34003KT 10SM BCFG FEW001 06/04 A3016 RMK AO2 SLP190 T00610044
Conditions at: KABQ (ALBUQUERQUE , NM, US) observed 1252 UTC 18 April 2019
Temperature: 6.1°C (43°F)
Dewpoint: 4.4°C (40°F) [RH = 89%]
Pressure (altimeter): 30.16 inches Hg (1021.4 mb)
[Sea-level pressure: 1019.0 mb]
Winds: from the NNW (340 degrees) at 3 MPH (3 knots; 1.5 m/s)
Visibility: 10 or more miles (16+ km)
Ceiling: at least 12,000 feet AGL
Clouds: few clouds at 100 feet AGL
Weather: BCFG  (patches of fog)

METAR text: KABQ 181152Z 33004KT 9SM BCFG FEW000 06/06 A3013 RMK AO2 SLP180 VIS E 2 1/2 SW-W 3/4 PRFG FEW000 70046 T00610056 10078 20056 53024
Conditions at: KABQ (ALBUQUERQUE , NM, US) observed 1152 UTC 18 April 2019
Temperature: 6.1°C (43°F)
Dewpoint: 5.6°C (42°F) [RH = 97%]
Pressure (altimeter): 30.13 inches Hg (1020.4 mb)
[Sea-level pressure: 1018.0 mb]
Winds: from the NNW (330 degrees) at 5 MPH (4 knots; 2.1 m/s)
Visibility: 9 miles (14 km)
Ceiling: at least 12,000 feet AGL
Clouds: few clouds at 0 feet AGL
Weather: BCFG  (patches of fog)

METAR text: KABQ 181052Z COR 05005KT 8SM BCFG FEW000 FEW001 06/05 A3010 RMK AO2 SLP168 VIS N 2 1/2 W-NW 2 PRFG FEW000 T00560050 $
Conditions at: KABQ (ALBUQUERQUE , NM, US) observed 1052 UTC 18 April 2019
Temperature: 5.6°C (42°F)
Dewpoint: 5.0°C (41°F) [RH = 96%]
Pressure (altimeter): 30.10 inches Hg (1019.4 mb)
[Sea-level pressure: 1016.8 mb]
Winds: from the NE (50 degrees) at 6 MPH (5 knots; 2.6 m/s)
Visibility: 8 miles (13 km)
Ceiling: at least 12,000 feet AGL
Clouds: few clouds at 0 feet AGL
few clouds at 100 feet AGL
Weather: BCFG  (patches of fog)
SOME DATA ABOVE MAY BE INACCURATE!!!
"$" is an indication the sensor requires maintenance

METAR text: KABQ 181010Z 06003KT 6SM BCFG FEW000 SCT001 06/05 A3007 RMK AO2 VIS N-NE AND SW-W 1/4 T00560050 $
Conditions at: KABQ (ALBUQUERQUE , NM, US) observed 1010 UTC 18 April 2019
Temperature: 5.6°C (42°F)
Dewpoint: 5.0°C (41°F) [RH = 96%]
Pressure (altimeter): 30.07 inches Hg (1018.4 mb)
Winds: from the ENE (60 degrees) at 3 MPH (3 knots; 1.5 m/s)
Visibility: 6 miles (10 km)
Ceiling: at least 12,000 feet AGL
Clouds: few clouds at 0 feet AGL
scattered clouds at 100 feet AGL
Weather: BCFG  (patches of fog)
SOME DATA ABOVE MAY BE INACCURATE!!!
"$" is an indication the sensor requires maintenance

METAR text: KABQ 180952Z 00000KT 1/16SM FG VV001 06/06 A3006 RMK AO2 SLP153 VIS S 1/4 T00560056 $
Conditions at: KABQ (ALBUQUERQUE , NM, US) observed 0952 UTC 18 April 2019
Temperature: 5.6°C (42°F)
Dewpoint: 5.6°C (42°F) [RH = 100%]
Pressure (altimeter): 30.06 inches Hg (1018.0 mb)
[Sea-level pressure: 1015.3 mb]
Winds: calm
Visibility: 0.06 miles (0.10 km)
Ceiling: indefinite ceiling with vertical visibility of 100 feet AGL
Clouds: obscured sky
Weather: FG  (fog)
SOME DATA ABOVE MAY BE INACCURATE!!!
"$" is an indication the sensor requires maintenance

METAR text: KABQ 180935Z COR 30003KT 1/8SM FG VV001 06/06 A3005 RMK AO2 T00560056 $
Conditions at: KABQ (ALBUQUERQUE , NM, US) observed 0935 UTC 18 April 2019
Temperature: 5.6°C (42°F)
Dewpoint: 5.6°C (42°F) [RH = 100%]
Pressure (altimeter): 30.05 inches Hg (1017.7 mb)
Winds: from the WNW (300 degrees) at 3 MPH (3 knots; 1.5 m/s)
Visibility: 0.13 miles (0.21 km)
Ceiling: indefinite ceiling with vertical visibility of 100 feet AGL
Clouds: obscured sky
Weather: FG  (fog)
SOME DATA ABOVE MAY BE INACCURATE!!!
"$" is an indication the sensor requires maintenance

METAR text: KABQ 180918Z COR 00000KT 8SM BCFG FEW000 FEW001 06/06 A3005 RMK AO2 VIS 1/4 SW-NW FG FEW000 T00610061 $
Conditions at: KABQ (ALBUQUERQUE , NM, US) observed 0918 UTC 18 April 2019
Temperature: 6.1°C (43°F)
Dewpoint: 6.1°C (43°F) [RH = 100%]
Pressure (altimeter): 30.05 inches Hg (1017.7 mb)
Winds: calm
Visibility: 8 miles (13 km)
Ceiling: at least 12,000 feet AGL
Clouds: few clouds at 0 feet AGL
few clouds at 100 feet AGL
Weather: BCFG  (patches of fog)
SOME DATA ABOVE MAY BE INACCURATE!!!
"$" is an indication the sensor requires maintenance

METAR text: KABQ 180916Z 28003KT 1 1/2SM BR FEW001 06/06 A3005 RMK AO2 T00610056 $
Conditions at: KABQ (ALBUQUERQUE , NM, US) observed 0916 UTC 18 April 2019
Temperature: 6.1°C (43°F)
Dewpoint: 5.6°C (42°F) [RH = 97%]
Pressure (altimeter): 30.05 inches Hg (1017.7 mb)
Winds: from the W (280 degrees) at 3 MPH (3 knots; 1.5 m/s)
Visibility: 1.50 miles (2.41 km)
Ceiling: at least 12,000 feet AGL
Clouds: few clouds at 100 feet AGL
Weather: BR  (mist)
SOME DATA ABOVE MAY BE INACCURATE!!!
"$" is an indication the sensor requires maintenance

METAR text: KABQ 180852Z 00000KT 10SM CLR 07/06 A3005 RMK AO2 SLP146 T00720056 58001 $
Conditions at: KABQ (ALBUQUERQUE , NM, US) observed 0852 UTC 18 April 2019
Temperature: 7.2°C (45°F)
Dewpoint: 5.6°C (42°F) [RH = 90%]
Pressure (altimeter): 30.05 inches Hg (1017.7 mb)
[Sea-level pressure: 1014.6 mb]
Winds: calm
Visibility: 10 or more miles (16+ km)
Ceiling: at least 12,000 feet AGL
Clouds: sky clear below 12,000 feet AGL
Weather:
SOME DATA ABOVE MAY BE INACCURATE!!!
"$" is an indication the sensor requires maintenance

METAR text: KABQ 180752Z 10003KT 10SM CLR 07/06 A3006 RMK AO2 SLP151 T00670061 $
Conditions at: KABQ (ALBUQUERQUE , NM, US) observed 0752 UTC 18 April 2019
Temperature: 6.7°C (44°F)
Dewpoint: 6.1°C (43°F) [RH = 96%]
Pressure (altimeter): 30.06 inches Hg (1018.0 mb)
[Sea-level pressure: 1015.1 mb]
Winds: from the E (100 degrees) at 3 MPH (3 knots; 1.5 m/s)
Visibility: 10 or more miles (16+ km)
Ceiling: at least 12,000 feet AGL
Clouds: sky clear below 12,000 feet AGL
Weather:
SOME DATA ABOVE MAY BE INACCURATE!!!
"$" is an indication the sensor requires maintenance

METAR text: KABQ 180652Z 12007KT 10SM FEW015 FEW030 SCT070 07/06 A3006 RMK AO2 SLP149 MTNS OBSC E T00720061 401500067 $
Conditions at: KABQ (ALBUQUERQUE , NM, US) observed 0652 UTC 18 April 2019
Temperature: 7.2°C (45°F)
Dewpoint: 6.1°C (43°F) [RH = 93%]
Pressure (altimeter): 30.06 inches Hg (1018.0 mb)
[Sea-level pressure: 1014.9 mb]
Winds: from the ESE (120 degrees) at 8 MPH (7 knots; 3.6 m/s)
Visibility: 10 or more miles (16+ km)
Ceiling: at least 12,000 feet AGL
Clouds: few clouds at 1500 feet AGL
few clouds at 3000 feet AGL
scattered clouds at 7000 feet AGL
Weather:
SOME DATA ABOVE MAY BE INACCURATE!!!
"$" is an indication the sensor requires maintenance

Forecast for: KABQ (ALBUQUERQUE , NM, US)
Text: KABQ 191722Z 1918/2018 VRB05KT P6SM SKC
Forecast period: 1800 UTC 19 April 2019 to 0300 UTC 20 April 2019
Forecast type: FROM: standard forecast or significant change
Winds: variable direction winds at 6 MPH (5 knots; 2.6 m/s)
Visibility: 6 or more miles 10+ km)
Clouds: clear skies
Weather: no significant weather forecast for this period
Text: FM200300 16007KT P6SM SKC
Forecast period: 0300 to 1500 UTC 20 April 2019
Forecast type: FROM: standard forecast or significant change
Winds: from the SSE (160 degrees) at 8 MPH (7 knots; 3.6 m/s)
Visibility: 6 or more miles 10+ km)
Clouds: clear skies
Weather: no significant weather forecast for this period
Text: FM201500 18006KT P6SM SCT150
Forecast period: 1500 to 1800 UTC 20 April 2019
Forecast type: FROM: standard forecast or significant change
Winds: from the S (180 degrees) at 7 MPH (6 knots; 3.1 m/s)
Visibility: 6 or more miles 10+ km)
Ceiling: at least 12,000 feet AGL
Clouds: scattered clouds at 15000 feet AGL
Weather: no significant weather forecast for this period